sensor_id;sensor_type;location;lat;lon;timestamp;pressure;altitude;pressure_sealevel;temperature;humidity
3150;BME280;32503;47.748;8.960;2022-09-30T00:01:01;95940.19;;;12.49;73.38
3150;BME280;32503;47.748;8.960;2022-09-30T00:03:29;95941.31;;;12.48;73.42
3150;BME280;32503;47.748;8.960;2022-09-30T00:05:57;95935.53;;;12.46;73.92
3150;BME280;32503;47.748;8.960;2022-09-30T00:08:24;95943.66;;;12.43;73.84
3150;BME280;32503;47.748;8.960;2022-09-30T00:10:59;95945.59;;;12.35;74.24
3150;BME280;32503;47.748;8.960;2022-09-30T00:13:29;95947.16;;;12.29;74.55
3150;BME280;32503;47.748;8.960;2022-09-30T00:15:56;95952.56;;;12.29;74.84
3150;BME280;32503;47.748;8.960;2022-09-30T00:18:23;95953.72;;;12.28;74.63
3150;BME280;32503;47.748;8.960;2022-09-30T00:20:51;95954.50;;;12.32;74.08
3150;BME280;32503;47.748;8.960;2022-09-30T00:23:19;95937.06;;;12.26;73.91
3150;BME280;32503;47.748;8.960;2022-09-30T00:25:46;95951.00;;;12.35;73.93
3150;BME280;32503;47.748;8.960;2022-09-30T00:28:14;95952.94;;;12.38;73.94
3150;BME280;32503;47.748;8.960;2022-09-30T00:30:41;95953.34;;;12.37;73.97
3150;BME280;32503;47.748;8.960;2022-09-30T00:33:08;95956.84;;;12.37;74.15
3150;BME280;32503;47.748;8.960;2022-09-30T00:35:36;95922.78;;;12.07;74.07
3150;BME280;32503;47.748;8.960;2022-09-30T00:38:04;95964.97;;;12.33;74.40
3150;BME280;32503;47.748;8.960;2022-09-30T00:40:32;95967.28;;;12.31;74.48
3150;BME280;32503;47.748;8.960;2022-09-30T00:42:59;95969.22;;;12.31;74.71
3150;BME280;32503;47.748;8.960;2022-09-30T00:45:26;95976.56;;;12.27;74.45
3150;BME280;32503;47.748;8.960;2022-09-30T00:48:00;95949.47;;;12.12;74.82
3150;BME280;32503;47.748;8.960;2022-09-30T00:50:36;95971.91;;;12.24;74.50
3150;BME280;32503;47.748;8.960;2022-09-30T00:53:14;95958.38;;;12.17;74.45
3150;BME280;32503;47.748;8.960;2022-09-30T00:55:49;95975.78;;;12.23;74.76
3150;BME280;32503;47.748;8.960;2022-09-30T00:58:24;95971.53;;;12.22;74.37
3150;BME280;32503;47.748;8.960;2022-09-30T01:00:54;95967.28;;;12.28;74.63
3150;BME280;32503;47.748;8.960;2022-09-30T01:03:23;95973.06;;;12.26;74.04
3150;BME280;32503;47.748;8.960;2022-09-30T01:05:50;95968.81;;;12.25;74.04
3150;BME280;32503;47.748;8.960;2022-09-30T01:08:20;95946.34;;;12.03;74.39
3150;BME280;32503;47.748;8.960;2022-09-30T01:10:48;95983.91;;;12.26;74.28
3150;BME280;32503;47.748;8.960;2022-09-30T01:13:16;95987.41;;;12.27;73.78
3150;BME280;32503;47.748;8.960;2022-09-30T01:16:09;95957.97;;;12.07;74.27
3150;BME280;32503;47.748;8.960;2022-09-30T01:18:58;95984.72;;;12.27;73.80
3150;BME280;32503;47.748;8.960;2022-09-30T01:21:57;95987.41;;;12.27;74.06
3150;BME280;32503;47.748;8.960;2022-09-30T01:24:43;95990.50;;;12.25;73.76
3150;BME280;32503;47.748;8.960;2022-09-30T01:27:46;95987.41;;;12.20;73.87
3150;BME280;32503;47.748;8.960;2022-09-30T01:30:20;95985.84;;;12.19;74.33
3150;BME280;32503;47.748;8.960;2022-09-30T01:33:19;95991.66;;;12.13;74.51
3150;BME280;32503;47.748;8.960;2022-09-30T01:36:22;95994.38;;;12.21;74.73
3150;BME280;32503;47.748;8.960;2022-09-30T01:39:02;95988.94;;;12.21;74.66
3150;BME280;32503;47.748;8.960;2022-09-30T01:41:41;95983.53;;;12.13;74.60
3150;BME280;32503;47.748;8.960;2022-09-30T01:44:15;95986.59;;;12.12;74.76
3150;BME280;32503;47.748;8.960;2022-09-30T01:46:50;95996.69;;;12.19;74.41
3150;BME280;32503;47.748;8.960;2022-09-30T01:49:28;95961.84;;;12.03;74.45
3150;BME280;32503;47.748;8.960;2022-09-30T01:52:03;95990.50;;;12.18;74.25
3150;BME280;32503;47.748;8.960;2022-09-30T01:54:35;95988.56;;;12.19;74.22
3150;BME280;32503;47.748;8.960;2022-09-30T01:57:09;95990.13;;;12.20;74.25
3150;BME280;32503;47.748;8.960;2022-09-30T01:59:43;95985.09;;;12.14;74.42
3150;BME280;32503;47.748;8.960;2022-09-30T02:02:16;95981.56;;;12.07;74.66
3150;BME280;32503;47.748;8.960;2022-09-30T02:04:50;95994.75;;;12.16;74.09
3150;BME280;32503;47.748;8.960;2022-09-30T02:07:25;95993.97;;;12.19;74.20
3150;BME280;32503;47.748;8.960;2022-09-30T02:09:58;95971.09;;;11.98;74.11
3150;BME280;32503;47.748;8.960;2022-09-30T02:12:33;95977.72;;;12.04;74.07
3150;BME280;32503;47.748;8.960;2022-09-30T02:15:08;95987.41;;;12.09;74.46
3150;BME280;32503;47.748;8.960;2022-09-30T02:17:39;95985.06;;;12.07;74.32
3150;BME280;32503;47.748;8.960;2022-09-30T02:20:12;95979.63;;;11.97;74.17
3150;BME280;32503;47.748;8.960;2022-09-30T02:22:45;95994.34;;;12.06;74.14
3150;BME280;32503;47.748;8.960;2022-09-30T02:25:18;95983.50;;;11.99;74.44
3150;BME280;32503;47.748;8.960;2022-09-30T02:27:52;95995.91;;;12.00;74.90
3150;BME280;32503;47.748;8.960;2022-09-30T02:30:21;95992.00;;;11.94;74.80
3150;BME280;32503;47.748;8.960;2022-09-30T02:32:50;95978.03;;;11.85;74.25
3150;BME280;32503;47.748;8.960;2022-09-30T02:35:24;95997.81;;;12.03;74.79
3150;BME280;32503;47.748;8.960;2022-09-30T02:37:56;95999.00;;;12.06;73.86
3150;BME280;32503;47.748;8.960;2022-09-30T02:40:30;95999.78;;;12.10;74.33
3150;BME280;32503;47.748;8.960;2022-09-30T02:43:01;96007.50;;;12.11;73.81
3150;BME280;32503;47.748;8.960;2022-09-30T02:45:33;96004.41;;;12.09;73.67
3150;BME280;32503;47.748;8.960;2022-09-30T02:48:15;96005.19;;;12.06;73.95
3150;BME280;32503;47.748;8.960;2022-09-30T02:50:51;96014.06;;;12.03;74.00
3150;BME280;32503;47.748;8.960;2022-09-30T02:53:26;95995.06;;;11.89;73.97
3150;BME280;32503;47.748;8.960;2022-09-30T02:56:23;96011.72;;;11.98;74.13
3150;BME280;32503;47.748;8.960;2022-09-30T02:58:55;96018.31;;;11.93;74.32
3150;BME280;32503;47.748;8.960;2022-09-30T03:01:23;96019.09;;;11.94;74.60
3150;BME280;32503;47.748;8.960;2022-09-30T03:03:53;96018.31;;;11.97;74.30
3150;BME280;32503;47.748;8.960;2022-09-30T03:06:23;96026.47;;;12.01;74.23
3150;BME280;32503;47.748;8.960;2022-09-30T03:08:51;96022.19;;;12.03;73.95
3150;BME280;32503;47.748;8.960;2022-09-30T03:11:21;96020.66;;;12.06;73.87
3150;BME280;32503;47.748;8.960;2022-09-30T03:14:41;96024.53;;;12.08;74.09
3150;BME280;32503;47.748;8.960;2022-09-30T03:17:40;96005.13;;;11.85;73.48
3150;BME280;32503;47.748;8.960;2022-09-30T03:20:35;96023.34;;;11.95;74.29
3150;BME280;32503;47.748;8.960;2022-09-30T03:26:23;96044.56;;;11.89;74.51
3150;BME280;32503;47.748;8.960;2022-09-30T03:29:08;96042.66;;;11.86;74.14
3150;BME280;32503;47.748;8.960;2022-09-30T03:31:44;96051.53;;;11.87;74.76
3150;BME280;32503;47.748;8.960;2022-09-30T03:34:21;96048.44;;;11.85;74.66
3150;BME280;32503;47.748;8.960;2022-09-30T03:36:59;96043.78;;;11.82;74.73
3150;BME280;32503;47.748;8.960;2022-09-30T03:39:43;96054.59;;;11.78;75.22
3150;BME280;32503;47.748;8.960;2022-09-30T03:42:16;96065.47;;;11.89;74.83
3150;BME280;32503;47.748;8.960;2022-09-30T03:44:55;96060.47;;;11.91;73.90
3150;BME280;32503;47.748;8.960;2022-09-30T03:47:24;96058.94;;;11.93;73.76
3150;BME280;32503;47.748;8.960;2022-09-30T03:49:56;96066.69;;;11.95;73.86
3150;BME280;32503;47.748;8.960;2022-09-30T03:52:25;96048.84;;;11.87;73.65
3150;BME280;32503;47.748;8.960;2022-09-30T03:54:58;96067.09;;;11.97;73.89
3150;BME280;32503;47.748;8.960;2022-09-30T03:57:27;96069.41;;;11.95;73.94
3150;BME280;32503;47.748;8.960;2022-09-30T03:59:55;96070.94;;;12.00;73.96
3150;BME280;32503;47.748;8.960;2022-09-30T04:02:22;96069.41;;;11.99;73.51
3150;BME280;32503;47.748;8.960;2022-09-30T04:04:49;96072.09;;;11.95;73.75
3150;BME280;32503;47.748;8.960;2022-09-30T04:07:16;96053.84;;;11.85;73.89
3150;BME280;32503;47.748;8.960;2022-09-30T04:09:43;96062.03;;;11.92;73.17
3150;BME280;32503;47.748;8.960;2022-09-30T04:12:12;96065.88;;;11.91;73.22
3150;BME280;32503;47.748;8.960;2022-09-30T04:14:39;96064.75;;;11.92;73.01
3150;BME280;32503;47.748;8.960;2022-09-30T04:17:06;96061.63;;;11.90;73.32
3150;BME280;32503;47.748;8.960;2022-09-30T04:19:33;96060.81;;;11.86;73.15
3150;BME280;32503;47.748;8.960;2022-09-30T04:22:05;96058.50;;;11.84;73.31
3150;BME280;32503;47.748;8.960;2022-09-30T04:24:32;96054.63;;;11.82;72.93
3150;BME280;32503;47.748;8.960;2022-09-30T04:26:59;96056.94;;;11.80;73.07
3150;BME280;32503;47.748;8.960;2022-09-30T04:29:28;96059.25;;;11.74;72.92
3150;BME280;32503;47.748;8.960;2022-09-30T04:31:55;96063.84;;;11.73;72.90
3150;BME280;32503;47.748;8.960;2022-09-30T04:34:23;96067.75;;;11.76;72.78
3150;BME280;32503;47.748;8.960;2022-09-30T04:36:50;96067.75;;;11.72;73.04
3150;BME280;32503;47.748;8.960;2022-09-30T04:39:17;96060.75;;;11.71;72.92
3150;BME280;32503;47.748;8.960;2022-09-30T04:41:44;96064.63;;;11.70;72.89
3150;BME280;32503;47.748;8.960;2022-09-30T04:44:11;96073.91;;;11.69;72.56
3150;BME280;32503;47.748;8.960;2022-09-30T04:46:39;96069.25;;;11.70;72.85
3150;BME280;32503;47.748;8.960;2022-09-30T04:49:07;96058.78;;;11.61;72.61
3150;BME280;32503;47.748;8.960;2022-09-30T04:51:34;96070.03;;;11.63;73.17
3150;BME280;32503;47.748;8.960;2022-09-30T04:54:03;96068.47;;;11.62;72.97
3150;BME280;32503;47.748;8.960;2022-09-30T04:56:30;96088.19;;;11.63;73.09
3150;BME280;32503;47.748;8.960;2022-09-30T04:58:57;96094.38;;;11.60;72.38
3150;BME280;32503;47.748;8.960;2022-09-30T05:01:24;96093.97;;;11.61;72.62
3150;BME280;32503;47.748;8.960;2022-09-30T05:03:53;96093.97;;;11.61;72.26
3150;BME280;32503;47.748;8.960;2022-09-30T05:06:20;96087.78;;;11.57;72.09
3150;BME280;32503;47.748;8.960;2022-09-30T05:08:47;96085.41;;;11.48;72.79
3150;BME280;32503;47.748;8.960;2022-09-30T05:11:16;96092.78;;;11.55;73.07
3150;BME280;32503;47.748;8.960;2022-09-30T05:13:44;96093.94;;;11.54;72.43
3150;BME280;32503;47.748;8.960;2022-09-30T05:16:12;96098.22;;;11.58;72.81
3150;BME280;32503;47.748;8.960;2022-09-30T05:18:40;96098.59;;;11.57;72.84
3150;BME280;32503;47.748;8.960;2022-09-30T05:21:12;96081.91;;;11.41;72.82
3150;BME280;32503;47.748;8.960;2022-09-30T05:23:40;96106.34;;;11.58;72.86
3150;BME280;32503;47.748;8.960;2022-09-30T05:26:07;96119.50;;;11.60;72.22
3150;BME280;32503;47.748;8.960;2022-09-30T05:28:34;96121.03;;;11.61;72.00
3150;BME280;32503;47.748;8.960;2022-09-30T05:31:03;96102.38;;;11.45;72.08
3150;BME280;32503;47.748;8.960;2022-09-30T05:33:32;96132.69;;;11.65;72.28
3150;BME280;32503;47.748;8.960;2022-09-30T05:36:01;96136.53;;;11.64;72.40
3150;BME280;32503;47.748;8.960;2022-09-30T05:38:30;96141.56;;;11.62;72.43
3150;BME280;32503;47.748;8.960;2022-09-30T05:40:57;96145.44;;;11.65;72.39
3150;BME280;32503;47.748;8.960;2022-09-30T05:43:24;96136.94;;;11.66;72.42
3150;BME280;32503;47.748;8.960;2022-09-30T05:45:53;96145.88;;;11.70;72.53
3150;BME280;32503;47.748;8.960;2022-09-30T05:48:20;96149.72;;;11.73;72.16
3150;BME280;32503;47.748;8.960;2022-09-30T05:50:47;96148.59;;;11.74;72.02
3150;BME280;32503;47.748;8.960;2022-09-30T05:53:16;96145.88;;;11.74;71.49
3150;BME280;32503;47.748;8.960;2022-09-30T05:55:48;96145.06;;;11.70;72.01
3150;BME280;32503;47.748;8.960;2022-09-30T05:58:16;96156.34;;;11.75;72.00
3150;BME280;32503;47.748;8.960;2022-09-30T06:00:45;96153.63;;;11.75;72.14
3150;BME280;32503;47.748;8.960;2022-09-30T06:03:14;96161.38;;;11.77;71.64
3150;BME280;32503;47.748;8.960;2022-09-30T06:05:42;96161.78;;;11.83;71.72
3150;BME280;32503;47.748;8.960;2022-09-30T06:08:11;96160.25;;;11.85;71.79
3150;BME280;32503;47.748;8.960;2022-09-30T06:10:39;96177.66;;;11.84;71.80
3150;BME280;32503;47.748;8.960;2022-09-30T06:13:09;96169.13;;;11.86;71.55
3150;BME280;32503;47.748;8.960;2022-09-30T06:15:36;96173.81;;;11.89;71.73
3150;BME280;32503;47.748;8.960;2022-09-30T06:18:07;96182.34;;;11.91;71.44
3150;BME280;32503;47.748;8.960;2022-09-30T06:20:35;96179.25;;;11.92;70.46
3150;BME280;32503;47.748;8.960;2022-09-30T06:23:03;96180.06;;;11.93;70.67
3150;BME280;32503;47.748;8.960;2022-09-30T06:25:31;96188.19;;;11.97;70.79
3150;BME280;32503;47.748;8.960;2022-09-30T06:27:58;96187.03;;;12.01;70.25
3150;BME280;32503;47.748;8.960;2022-09-30T06:30:27;96190.16;;;12.03;70.34
3150;BME280;32503;47.748;8.960;2022-09-30T06:32:56;96191.72;;;12.04;70.25
3150;BME280;32503;47.748;8.960;2022-09-30T06:35:23;96204.50;;;12.07;70.60
3150;BME280;32503;47.748;8.960;2022-09-30T06:37:51;96183.53;;;11.93;70.34
3150;BME280;32503;47.748;8.960;2022-09-30T06:40:19;96200.25;;;12.10;70.48
3150;BME280;32503;47.748;8.960;2022-09-30T06:42:47;96202.59;;;12.15;70.62
3150;BME280;32503;47.748;8.960;2022-09-30T06:45:14;96210.34;;;12.17;70.91
3150;BME280;32503;47.748;8.960;2022-09-30T06:47:44;96211.53;;;12.23;70.70
3150;BME280;32503;47.748;8.960;2022-09-30T06:50:13;96208.44;;;12.24;70.71
3150;BME280;32503;47.748;8.960;2022-09-30T06:52:40;96211.16;;;12.28;70.06
3150;BME280;32503;47.748;8.960;2022-09-30T06:55:07;96217.78;;;12.30;70.46
3150;BME280;32503;47.748;8.960;2022-09-30T06:57:35;96213.50;;;12.29;70.46
3150;BME280;32503;47.748;8.960;2022-09-30T07:00:03;96218.16;;;12.32;70.31
3150;BME280;32503;47.748;8.960;2022-09-30T07:02:30;96218.16;;;12.32;69.71
3150;BME280;32503;47.748;8.960;2022-09-30T07:05:00;96227.88;;;12.37;70.08
3150;BME280;32503;47.748;8.960;2022-09-30T07:07:28;96229.78;;;12.40;69.80
3150;BME280;32503;47.748;8.960;2022-09-30T07:09:59;96222.47;;;12.44;69.61
3150;BME280;32503;47.748;8.960;2022-09-30T07:12:26;96217.06;;;12.48;69.81
3150;BME280;32503;47.748;8.960;2022-09-30T07:14:53;96219.78;;;12.51;69.46
3150;BME280;32503;47.748;8.960;2022-09-30T07:17:21;96221.34;;;12.56;69.43
3150;BME280;32503;47.748;8.960;2022-09-30T07:19:48;96228.72;;;12.59;69.91
3150;BME280;32503;47.748;8.960;2022-09-30T07:22:18;96229.91;;;12.62;69.87
3150;BME280;32503;47.748;8.960;2022-09-30T07:24:55;96229.91;;;12.62;69.85
3150;BME280;32503;47.748;8.960;2022-09-30T07:27:23;96220.94;;;12.58;69.68
3150;BME280;32503;47.748;8.960;2022-09-30T07:29:50;96220.97;;;12.61;69.40
3150;BME280;32503;47.748;8.960;2022-09-30T07:32:18;96229.09;;;12.65;69.72
3150;BME280;32503;47.748;8.960;2022-09-30T07:34:45;96224.84;;;12.64;69.58
3150;BME280;32503;47.748;8.960;2022-09-30T07:37:14;96234.53;;;12.65;69.44
3150;BME280;32503;47.748;8.960;2022-09-30T07:39:46;96218.25;;;12.61;69.25
3150;BME280;32503;47.748;8.960;2022-09-30T07:42:15;96233.00;;;12.67;69.47
3150;BME280;32503;47.748;8.960;2022-09-30T07:44:46;96236.88;;;12.70;69.72
3150;BME280;32503;47.748;8.960;2022-09-30T07:47:14;96215.94;;;12.67;69.69
3150;BME280;32503;47.748;8.960;2022-09-30T07:49:41;96241.16;;;12.78;69.66
3150;BME280;32503;47.748;8.960;2022-09-30T07:52:10;96234.56;;;12.83;69.62
3150;BME280;32503;47.748;8.960;2022-09-30T07:54:39;96236.53;;;12.89;69.31
3150;BME280;32503;47.748;8.960;2022-09-30T07:57:08;96236.53;;;12.97;69.35
3150;BME280;32503;47.748;8.960;2022-09-30T07:59:39;96233.44;;;12.98;69.28
3150;BME280;32503;47.748;8.960;2022-09-30T08:02:12;96245.88;;;13.06;69.12
3150;BME280;32503;47.748;8.960;2022-09-30T08:04:40;96239.31;;;13.15;68.93
3150;BME280;32503;47.748;8.960;2022-09-30T08:07:07;96249.38;;;13.25;68.56
3150;BME280;32503;47.748;8.960;2022-09-30T08:09:34;96255.63;;;13.33;68.40
3150;BME280;32503;47.748;8.960;2022-09-30T08:12:02;96261.47;;;13.42;68.36
3150;BME280;32503;47.748;8.960;2022-09-30T08:14:31;96266.50;;;13.54;68.25
3150;BME280;32503;47.748;8.960;2022-09-30T08:16:59;96272.31;;;13.63;67.96
3150;BME280;32503;47.748;8.960;2022-09-30T08:19:27;96274.25;;;13.74;67.71
3150;BME280;32503;47.748;8.960;2022-09-30T08:21:55;96287.06;;;13.84;67.14
3150;BME280;32503;47.748;8.960;2022-09-30T08:24:23;96289.00;;;13.87;66.74
3150;BME280;32503;47.748;8.960;2022-09-30T08:26:50;96284.34;;;13.91;66.45
3150;BME280;32503;47.748;8.960;2022-09-30T08:29:18;96289.38;;;13.93;65.98
3150;BME280;32503;47.748;8.960;2022-09-30T08:31:46;96295.22;;;13.91;66.01
3150;BME280;32503;47.748;8.960;2022-09-30T08:34:14;96300.63;;;13.91;65.74
3150;BME280;32503;47.748;8.960;2022-09-30T08:36:42;96290.53;;;13.92;66.04
3150;BME280;32503;47.748;8.960;2022-09-30T08:39:11;96293.63;;;13.97;66.04
3150;BME280;32503;47.748;8.960;2022-09-30T08:42:02;96293.25;;;14.02;65.95
3150;BME280;32503;47.748;8.960;2022-09-30T08:44:45;96295.94;;;14.10;66.24
3150;BME280;32503;47.748;8.960;2022-09-30T08:47:37;96303.31;;;14.20;65.53
3150;BME280;32503;47.748;8.960;2022-09-30T08:50:17;96295.91;;;14.24;65.60
3150;BME280;32503;47.748;8.960;2022-09-30T08:52:51;96313.78;;;14.32;65.50
3150;BME280;32503;47.748;8.960;2022-09-30T08:55:23;96311.41;;;14.41;65.38
3150;BME280;32503;47.748;8.960;2022-09-30T08:57:52;96313.72;;;14.54;65.19
3150;BME280;32503;47.748;8.960;2022-09-30T09:00:21;96315.66;;;14.64;65.12
3150;BME280;32503;47.748;8.960;2022-09-30T09:02:53;96319.09;;;14.83;64.71
3150;BME280;32503;47.748;8.960;2022-09-30T09:05:43;96328.34;;;14.96;64.19
3150;BME280;32503;47.748;8.960;2022-09-30T09:08:17;96331.44;;;15.02;63.62
3150;BME280;32503;47.748;8.960;2022-09-30T09:10:51;96334.16;;;15.09;63.31
3150;BME280;32503;47.748;8.960;2022-09-30T09:13:38;96346.56;;;15.13;62.49
3150;BME280;32503;47.748;8.960;2022-09-30T09:16:19;96349.63;;;15.23;62.69
3150;BME280;32503;47.748;8.960;2022-09-30T09:19:06;96354.63;;;15.31;62.25
3150;BME280;32503;47.748;8.960;2022-09-30T09:21:49;96359.66;;;15.36;61.91
3150;BME280;32503;47.748;8.960;2022-09-30T09:24:22;96357.31;;;15.35;61.84
3150;BME280;32503;47.748;8.960;2022-09-30T09:26:53;96358.13;;;15.35;61.69
3150;BME280;32503;47.748;8.960;2022-09-30T09:29:41;96360.06;;;15.31;61.22
3150;BME280;32503;47.748;8.960;2022-09-30T09:32:14;96329.09;;;15.11;60.88
3150;BME280;32503;47.748;8.960;2022-09-30T09:34:43;96353.06;;;15.34;61.03
3150;BME280;32503;47.748;8.960;2022-09-30T09:37:16;96364.31;;;15.40;61.23
3150;BME280;32503;47.748;8.960;2022-09-30T09:40:06;96359.63;;;15.44;60.63
3150;BME280;32503;47.748;8.960;2022-09-30T09:43:00;96358.38;;;15.55;59.74
3150;BME280;32503;47.748;8.960;2022-09-30T09:45:35;96351.06;;;15.45;60.09
3150;BME280;32503;47.748;8.960;2022-09-30T09:48:07;96371.94;;;15.66;59.72
3150;BME280;32503;47.748;8.960;2022-09-30T09:50:48;96370.75;;;15.75;59.40
3150;BME280;32503;47.748;8.960;2022-09-30T09:53:48;96375.44;;;15.67;58.55
3150;BME280;32503;47.748;8.960;2022-09-30T09:56:17;96369.97;;;15.67;58.64
3150;BME280;32503;47.748;8.960;2022-09-30T09:59:11;96374.63;;;15.70;59.29
3150;BME280;32503;47.748;8.960;2022-09-30T10:01:41;96368.78;;;15.71;59.02
3150;BME280;32503;47.748;8.960;2022-09-30T10:04:16;96372.28;;;15.76;58.88
3150;BME280;32503;47.748;8.960;2022-09-30T10:06:54;96368.78;;;15.75;58.83
3150;BME280;32503;47.748;8.960;2022-09-30T10:09:29;96380.44;;;15.79;58.58
3150;BME280;32503;47.748;8.960;2022-09-30T10:12:27;96375.34;;;15.85;58.34
3150;BME280;32503;47.748;8.960;2022-09-30T10:17:53;96365.84;;;16.04;57.76
3150;BME280;32503;47.748;8.960;2022-09-30T10:20:29;96368.28;;;16.40;57.19
3150;BME280;32503;47.748;8.960;2022-09-30T10:23:08;96356.94;;;16.45;56.95
3150;BME280;32503;47.748;8.960;2022-09-30T10:25:36;96376.53;;;16.71;56.50
3150;BME280;32503;47.748;8.960;2022-09-30T10:28:21;96353.53;;;16.72;55.92
3150;BME280;32503;47.748;8.960;2022-09-30T10:30:55;96376.91;;;17.11;55.44
3150;BME280;32503;47.748;8.960;2022-09-30T10:33:34;96377.88;;;17.24;53.46
3150;BME280;32503;47.748;8.960;2022-09-30T10:36:13;96377.53;;;17.22;53.64
3150;BME280;32503;47.748;8.960;2022-09-30T10:38:58;96379.34;;;17.32;53.24
3150;BME280;32503;47.748;8.960;2022-09-30T10:41:28;96392.06;;;17.46;53.17
3150;BME280;32503;47.748;8.960;2022-09-30T10:43:58;96397.41;;;17.53;51.99
3150;BME280;32503;47.748;8.960;2022-09-30T10:46:28;96389.88;;;17.61;52.19
3150;BME280;32503;47.748;8.960;2022-09-30T10:48:57;96389.66;;;17.79;52.09
3150;BME280;32503;47.748;8.960;2022-09-30T10:51:30;96383.69;;;17.84;51.73
3150;BME280;32503;47.748;8.960;2022-09-30T10:54:03;96383.53;;;17.98;51.70
3150;BME280;32503;47.748;8.960;2022-09-30T10:56:41;96388.94;;;18.26;50.92
3150;BME280;32503;47.748;8.960;2022-09-30T10:59:30;96380.50;;;18.16;50.35
3150;BME280;32503;47.748;8.960;2022-09-30T11:02:12;96385.50;;;18.22;51.06
3150;BME280;32503;47.748;8.960;2022-09-30T11:04:46;96389.78;;;18.23;50.57
3150;BME280;32503;47.748;8.960;2022-09-30T11:07:23;96400.34;;;18.21;50.12
3150;BME280;32503;47.748;8.960;2022-09-30T11:09:59;96399.34;;;18.11;49.81
3150;BME280;32503;47.748;8.960;2022-09-30T11:12:36;96411.06;;;18.11;49.81
3150;BME280;32503;47.748;8.960;2022-09-30T11:15:12;96409.84;;;18.12;49.49
3150;BME280;32503;47.748;8.960;2022-09-30T11:17:51;96410.19;;;18.18;49.91
3150;BME280;32503;47.748;8.960;2022-09-30T11:20:25;96416.59;;;18.31;49.48
3150;BME280;32503;47.748;8.960;2022-09-30T11:23:00;96415.34;;;18.36;48.56
3150;BME280;32503;47.748;8.960;2022-09-30T11:25:38;96415.25;;;18.43;49.37
3150;BME280;32503;47.748;8.960;2022-09-30T11:28:29;96421.66;;;18.33;47.67
3150;BME280;32503;47.748;8.960;2022-09-30T11:31:06;96421.88;;;17.95;48.56
3150;BME280;32503;47.748;8.960;2022-09-30T11:33:50;96426.72;;;17.80;48.33
3150;BME280;32503;47.748;8.960;2022-09-30T11:36:32;96420.91;;;17.78;49.31
3150;BME280;32503;47.748;8.960;2022-09-30T11:39:27;96425.00;;;17.62;49.08
3150;BME280;32503;47.748;8.960;2022-09-30T11:42:05;96415.69;;;17.60;50.83
3150;BME280;32503;47.748;8.960;2022-09-30T11:44:35;96413.63;;;17.68;50.47
3150;BME280;32503;47.748;8.960;2022-09-30T11:47:34;96418.47;;;17.84;50.11
3150;BME280;32503;47.748;8.960;2022-09-30T11:50:19;96410.69;;;17.82;49.25
3150;BME280;32503;47.748;8.960;2022-09-30T11:52:56;96410.38;;;17.49;48.53
3150;BME280;32503;47.748;8.960;2022-09-30T11:55:39;96415.69;;;17.29;50.01
3150;BME280;32503;47.748;8.960;2022-09-30T11:58:13;96405.09;;;17.00;50.48
3150;BME280;32503;47.748;8.960;2022-09-30T12:00:47;96393.19;;;16.80;51.49
3150;BME280;32503;47.748;8.960;2022-09-30T12:03:20;96417.59;;;17.01;50.70
3150;BME280;32503;47.748;8.960;2022-09-30T12:05:54;96401.81;;;16.78;50.06
3150;BME280;32503;47.748;8.960;2022-09-30T12:08:28;96414.13;;;16.56;49.70
3150;BME280;32503;47.748;8.960;2022-09-30T12:11:01;96406.75;;;16.49;50.93
3150;BME280;32503;47.748;8.960;2022-09-30T12:13:34;96412.13;;;16.60;51.39
3150;BME280;32503;47.748;8.960;2022-09-30T12:16:14;96410.56;;;16.62;51.76
3150;BME280;32503;47.748;8.960;2022-09-30T12:18:49;96407.34;;;16.67;51.80
3150;BME280;32503;47.748;8.960;2022-09-30T12:21:22;96415.88;;;16.77;51.63
3150;BME280;32503;47.748;8.960;2022-09-30T12:23:55;96411.00;;;16.95;51.93
3150;BME280;32503;47.748;8.960;2022-09-30T12:26:25;96409.47;;;17.56;55.49
3150;BME280;32503;47.748;8.960;2022-09-30T12:28:56;96411.63;;;17.72;50.73
3150;BME280;32503;47.748;8.960;2022-09-30T12:32:28;96419.88;;;17.37;50.42
3150;BME280;32503;47.748;8.960;2022-09-30T12:35:22;96418.53;;;17.18;50.51
3150;BME280;32503;47.748;8.960;2022-09-30T12:38:16;96403.19;;;16.97;52.85
3150;BME280;32503;47.748;8.960;2022-09-30T12:41:02;96418.75;;;17.00;53.11
3150;BME280;32503;47.748;8.960;2022-09-30T12:44:40;96420.44;;;16.87;53.55
3150;BME280;32503;47.748;8.960;2022-09-30T12:47:21;96410.78;;;16.79;52.31
3150;BME280;32503;47.748;8.960;2022-09-30T12:49:55;96418.06;;;16.93;51.61
3150;BME280;32503;47.748;8.960;2022-09-30T12:52:25;96421.84;;;17.02;49.85
3150;BME280;32503;47.748;8.960;2022-09-30T12:54:59;96413.09;;;16.84;49.34
3150;BME280;32503;47.748;8.960;2022-09-30T12:57:30;96418.78;;;16.97;49.60
3150;BME280;32503;47.748;8.960;2022-09-30T13:00:05;96412.47;;;17.03;50.45
3150;BME280;32503;47.748;8.960;2022-09-30T13:02:41;96419.13;;;17.02;50.85
3150;BME280;32503;47.748;8.960;2022-09-30T13:05:51;96418.09;;;16.89;51.49
3150;BME280;32503;47.748;8.960;2022-09-30T13:08:47;96417.34;;;16.85;52.59
3150;BME280;32503;47.748;8.960;2022-09-30T13:11:40;96418.22;;;16.75;52.49
3150;BME280;32503;47.748;8.960;2022-09-30T13:14:32;96408.44;;;16.77;52.78
3150;BME280;32503;47.748;8.960;2022-09-30T13:17:24;96406.34;;;16.92;53.17
3150;BME280;32503;47.748;8.960;2022-09-30T13:19:53;96413.28;;;17.00;53.48
3150;BME280;32503;47.748;8.960;2022-09-30T13:22:41;96417.91;;;17.07;52.86
3150;BME280;32503;47.748;8.960;2022-09-30T13:25:13;96417.13;;;17.07;52.66
3150;BME280;32503;47.748;8.960;2022-09-30T13:27:43;96399.13;;;16.75;52.25
3150;BME280;32503;47.748;8.960;2022-09-30T13:30:34;96417.03;;;16.76;52.86
3150;BME280;32503;47.748;8.960;2022-09-30T13:33:40;96411.78;;;16.05;53.91
3150;BME280;32503;47.748;8.960;2022-09-30T13:36:27;96421.53;;;16.52;53.14
3150;BME280;32503;47.748;8.960;2022-09-30T13:39:21;96417.91;;;16.65;53.08
3150;BME280;32503;47.748;8.960;2022-09-30T13:42:07;96417.34;;;16.85;52.90
3150;BME280;32503;47.748;8.960;2022-09-30T13:44:49;96423.16;;;16.91;52.47
3150;BME280;32503;47.748;8.960;2022-09-30T13:47:28;96414.78;;;17.09;52.39
3150;BME280;32503;47.748;8.960;2022-09-30T13:50:02;96427.88;;;17.21;52.54
3150;BME280;32503;47.748;8.960;2022-09-30T13:52:33;96425.53;;;17.23;52.17
3150;BME280;32503;47.748;8.960;2022-09-30T13:55:07;96427.84;;;17.24;52.21